ADDS METAR Data INFO
IDs: Format: Raw Decoded Include TAF

Data at: 0705 UTC 19 Oct 2017

KGUP 190653Z AUTO 13006KT 10SM CLR 08/M05 A3020 RMK AO2 SLP114 T00781050 402501006
KGUP 190553Z AUTO 10005KT 10SM CLR 08/M06 A3021 RMK AO2 SLP125 T00781056 10233 20061 58000
KGUP 190453Z AUTO 08004KT 10SM CLR 11/M05 A3022 RMK AO2 SLP132 T01061050
KGUP 190353Z AUTO 05005KT 10SM CLR 10/M06 A3022 RMK AO2 SLP156 T01001056
KGUP 190253Z AUTO 00000KT 10SM CLR 11/M07 A3021 RMK AO2 SLP167 T01061067 50005
KGUP 190153Z AUTO 00000KT 10SM CLR 13/M07 A3021 RMK AO2 SLP187 T01281067
KGUP 190053Z AUTO 00000KT 10SM CLR 18/M08 A3019 RMK AO2 SLP161 T01781078
KGUP 182353Z AUTO 14003KT 10SM CLR 23/M08 A3019 RMK AO2 SLP132 T02331083 10250 20206 56008
KGUP 182253Z AUTO VRB04KT 10SM CLR 24/M07 A3020 RMK AO2 SLP131 T02441067
KGUP 182153Z AUTO VRB05KT 10SM CLR 24/M09 A3021 RMK AO2 SLP129 T02441094
KGUP 182053Z AUTO VRB03KT 10SM CLR 24/M08 A3022 RMK AO2 SLP129 T02391083 58020
KGUP 181953Z AUTO VRB05KT 10SM CLR 23/M05 A3025 RMK AO2 SLP142 T02331050
KGUP 181853Z AUTO VRB05KT 10SM CLR 22/M03 A3027 RMK AO2 SLP151 T02221028
KGUP 181753Z AUTO 00000KT 10SM CLR 20/M05 A3029 RMK AO2 SLP164 T02001050 10200 21006 58004
KGUP 181653Z AUTO 00000KT 10SM CLR 16/M06 A3030 RMK AO2 SLP186 T01611056
KGUP 181553Z AUTO 00000KT 10SM CLR 11/M07 A3032 RMK AO2 SLP204 T01061072
KGUP 181453Z AUTO 05003KT 10SM CLR 07/M08 A3031 RMK AO2 SLP211 T00671078 53006
KGUP 181353Z AUTO 00000KT 10SM CLR 00/M08 A3030 RMK AO2 SLP227 T00001083
KGUP 181253Z AUTO 05003KT 10SM CLR 00/M09 A3029 RMK AO2 SLP196 T00001089
KGUP 181153Z AUTO 00000KT 10SM CLR 01/M08 A3028 RMK AO2 SLP170 T00061083 10061 20000 55002
KGUP 181053Z AUTO 00000KT 10SM CLR 01/M09 A3027 RMK AO2 SLP157 T00111089
KGUP 180953Z AUTO 00000KT 10SM CLR 02/M09 A3028 RMK AO2 SLP154 T00221089
KGUP 180853Z AUTO 00000KT 10SM CLR 04/M09 A3029 RMK AO2 SLP150 T00391094 58001
KGUP 180753Z AUTO 00000KT 10SM CLR 03/M09 A3029 RMK AO2 SLP160 T00281094
KGUP 180653Z AUTO 00000KT 10SM CLR 04/M10 A3029 RMK AO2 SLP159 T00441100 402441039
KGUP 180553Z AUTO 04003KT 10SM CLR 06/M09 A3029 RMK AO2 SLP164 T00561089 10228 20033 50001
KGUP 180453Z AUTO 29003KT 10SM CLR 04/M11 A3030 RMK AO2 SLP195 T00441106
KGUP 180353Z AUTO 00000KT 10SM CLR 07/M11 A3029 RMK AO2 SLP194 T00721106
KGUP 180253Z AUTO 00000KT 10SM CLR 09/M11 A3029 RMK AO2 SLP210 T00891111 50009
KGUP 180153Z AUTO 00000KT 10SM CLR 11/M11 A3029 RMK AO2 SLP230 T01061106
KGUP 180053Z AUTO 04006KT 10SM CLR 18/M12 A3027 RMK AO2 WSHFT 2345 SLP195 T01781122
KGUP 180005Z AUTO 02007KT 10SM CLR 22/M12 A3026 RMK AO2 WSHFT 2345 T02171117
KGUP 172353Z AUTO 01012KT 10SM CLR 23/M11 A3026 RMK AO2 SLP165 T02281111 10244 20194 56009
KGUP 172253Z AUTO 21010G14KT 170V240 10SM CLR 24/M07 A3026 RMK AO2 SLP156 T02391067
KGUP 172153Z AUTO 19009KT 10SM CLR 24/M07 A3027 RMK AO2 SLP161 T02441067
KGUP 172053Z AUTO 25009G14KT 200V270 10SM CLR 24/M08 A3029 RMK AO2 SLP162 T02441083 56028
KGUP 171953Z AUTO 10SM CLR 24/M08 A3032 RMK AO2 SLP163 T02391078